Time;durP1;ratioP1;P1;durP2;ratioP2;P2;SDS_P1;SDS_P2;PMS_P1;PMS_P2;Temp;Humidity;BMP_temperature;BMP_pressure;BME280_temperature;BME280_humidity;BME280_pressure;Samples;Min_cycle;Max_cycle;Signal;HPM_P1;HPM_P2
2022/12/10 15:32:26;;;;;;;24.03;16.30;;;;;;;2.71;100.00;98061.13;6256771;22;20215;-80
2022/12/10 15:34:55;;;;;;;22.90;16.50;;;;;;;2.86;100.00;98077.59;6204219;23;20208;-80
2022/12/10 15:37:33;;;;;;;23.60;16.63;;;;;;;2.72;100.00;98080.47;6252735;23;20680;-80
2022/12/10 15:40:03;;;;;;;22.07;16.10;;;;;;;2.57;100.00;98070.13;6175765;23;20204;-79
2022/12/10 15:42:38;;;;;;;24.33;16.80;;;;;;;2.75;100.00;98075.59;6229298;23;20212;-80
2022/12/10 15:45:19;;;;;;;23.07;16.20;;;;;;;2.64;100.00;98070.94;6229118;23;20692;-80
2022/12/10 15:47:46;;;;;;;25.70;17.23;;;;;;;2.71;100.00;98070.94;6229142;23;20212;-80
2022/12/10 15:50:13;;;;;;;22.87;15.80;;;;;;;2.77;100.00;98073.53;6202382;23;20280;-79
2022/12/10 15:52:41;;;;;;;23.20;16.47;;;;;;;2.71;100.00;98065.66;6252405;23;20705;-79
2022/12/10 15:55:09;;;;;;;26.67;17.77;;;;;;;2.63;100.00;98064.84;6227161;23;20227;-79
2022/12/10 15:57:39;;;;;;;24.60;17.23;;;;;;;2.68;100.00;98061.56;6225111;23;20258;-80
2022/12/10 16:00:08;;;;;;;26.20;16.60;;;;;;;2.67;100.00;98057.28;6226580;23;20280;-79
2022/12/10 16:02:45;;;;;;;26.37;17.10;;;;;;;2.70;100.00;98062.19;6228655;23;20646;-80
2022/12/10 16:05:22;;;;;;;24.87;17.07;;;;;;;2.61;100.00;98063.44;6252758;23;20209;-80
2022/12/10 16:07:51;;;;;;;24.63;17.43;;;;;;;2.56;100.00;98052.66;6229454;23;20185;-80
2022/12/10 16:10:20;;;;;;;24.87;17.77;;;;;;;2.55;100.00;98058.97;6255167;23;20212;-79
2022/12/10 16:12:49;;;;;;;25.43;17.27;;;;;;;2.54;100.00;98054.69;6203330;23;20288;-79
2022/12/10 16:15:27;;;;;;;25.97;17.47;;;;;;;2.58;100.00;98062.00;6204500;23;20215;-80
2022/12/10 16:17:53;;;;;;;26.40;17.80;;;;;;;2.66;100.00;98048.53;6231403;23;20215;-81
2022/12/10 16:20:27;;;;;;;26.43;17.43;;;;;;;2.53;100.00;98048.56;6232282;23;20224;-80
2022/12/10 16:22:56;;;;;;;26.50;17.67;;;;;;;2.46;100.00;98049.63;6237872;23;20232;-81
2022/12/10 16:25:26;;;;;;;26.37;18.27;;;;;;;2.48;100.00;98052.84;6267498;23;20212;-80
2022/12/10 16:27:57;;;;;;;26.47;18.70;;;;;;;2.47;100.00;98059.19;6192940;23;20235;-80
2022/12/10 16:30:37;;;;;;;28.43;18.70;;;;;;;2.50;100.00;98069.34;6216336;23;20219;-80
2022/12/10 16:33:14;;;;;;;25.93;17.83;;;;;;;2.47;100.00;98057.31;6266984;23;20209;-80
2022/12/10 16:35:41;;;;;;;26.20;17.40;;;;;;;2.59;100.00;98065.44;6215245;23;20208;-80
2022/12/10 16:38:09;;;;;;;26.70;17.57;;;;;;;2.63;100.00;98062.19;6239543;22;20228;-80
2022/12/10 16:40:39;;;;;;;27.67;18.60;;;;;;;2.45;100.00;98055.91;6204740;23;20227;-80
2022/12/10 16:43:13;;;;;;;27.17;18.33;;;;;;;2.43;100.00;98065.88;6216929;23;20219;-80
2022/12/10 16:45:41;;;;;;;27.97;18.07;;;;;;;2.40;100.00;98061.00;6217671;23;20196;-80
2022/12/10 16:48:09;;;;;;;27.00;17.43;;;;;;;2.47;100.00;98044.09;6241129;23;20212;-80
2022/12/10 16:50:37;;;;;;;28.80;18.53;;;;;;;2.52;100.00;98054.09;6192236;23;20256;-80
2022/12/10 16:53:14;;;;;;;26.47;17.77;;;;;;;2.48;100.00;98053.66;6240585;23;20205;-80
2022/12/10 16:55:41;;;;;;;27.07;17.50;;;;;;;2.47;100.00;98048.59;6213877;23;20211;-80
2022/12/10 16:58:10;;;;;;;25.07;17.70;;;;;;;2.48;100.00;98053.66;6264076;23;20231;-80
2022/12/10 17:00:38;;;;;;;26.30;17.50;;;;;;;2.48;100.00;98053.66;6243437;23;20681;-81
2022/12/10 17:03:06;;;;;;;24.10;17.33;;;;;;;2.46;100.00;98055.72;6223223;23;20192;-81
2022/12/10 17:06:03;;;;;;;27.57;18.40;;;;;;;2.44;100.00;98051.66;6250179;23;20224;-80
2022/12/10 17:09:13;;;;;;;26.67;17.93;;;;;;;2.33;100.00;98050.47;6235041;22;20239;-80
2022/12/10 17:11:45;;;;;;;29.13;19.23;;;;;;;2.32;100.00;98064.69;6250347;23;20252;-81
2022/12/10 17:14:54;;;;;;;27.83;18.77;;;;;;;2.37;100.00;98056.97;6224270;23;20196;-81
2022/12/10 17:17:24;;;;;;;27.77;18.87;;;;;;;2.31;100.00;98055.13;6153124;23;20196;-81
2022/12/10 17:19:53;;;;;;;24.13;17.13;;;;;;;2.35;100.00;98051.06;6231332;23;20227;-81
2022/12/10 17:22:29;;;;;;;27.10;18.43;;;;;;;2.37;100.00;98053.50;6271271;23;20188;-81
2022/12/10 17:24:58;;;;;;;27.47;18.90;;;;;;;2.29;100.00;98057.16;6247278;23;20272;-82
2022/12/10 19:03:27;;;;;;;38.07;22.23;;;;;;;2.18;100.00;98071.81;6268666;22;20195;-83
2022/12/10 19:17:46;;;;;;;38.27;21.57;;;;;;;2.18;100.00;98049.84;6266501;22;20207;-84
